createdAt,value
2018-08-20T00:00:34.643Z,127.10
2018-08-20T00:01:34.657Z,135.60
2018-08-20T00:02:34.709Z,130.40
2018-08-20T00:03:34.779Z,133.80
2018-08-20T00:04:35.080Z,138.70
2018-08-20T00:05:34.847Z,137.70
2018-08-20T00:06:34.903Z,137.30
2018-08-20T00:07:34.916Z,135.00
2018-08-20T00:08:34.949Z,132.80
2018-08-20T00:09:35.021Z,131.80
2018-08-20T00:10:35.064Z,140.70
2018-08-20T00:11:35.108Z,135.80
2018-08-20T00:12:35.142Z,137.90
2018-08-20T00:13:35.191Z,133.20
2018-08-20T00:14:35.236Z,133.00
2018-08-20T00:15:35.264Z,134.80
2018-08-20T00:16:35.330Z,145.50
2018-08-20T00:17:35.410Z,145.80
2018-08-20T00:18:35.414Z,142.00
2018-08-20T00:19:35.452Z,149.10
2018-08-20T00:20:35.496Z,162.50
2018-08-20T00:21:35.550Z,156.30
2018-08-20T00:22:35.580Z,159.10
2018-08-20T00:23:35.631Z,163.10
2018-08-20T00:24:35.809Z,152.10
2018-08-20T00:25:35.707Z,155.30
2018-08-20T00:26:35.753Z,158.30
2018-08-20T00:27:35.809Z,158.00
2018-08-20T00:28:35.874Z,153.90
2018-08-20T00:29:35.911Z,143.60
2018-08-20T00:30:35.925Z,142.90
2018-08-20T00:31:35.990Z,126.80
2018-08-20T00:32:36.032Z,138.50
2018-08-20T00:33:36.079Z,122.70
2018-08-20T00:34:36.126Z,120.20
2018-08-20T00:35:36.152Z,126.50
2018-08-20T00:36:36.190Z,114.90
2018-08-20T00:37:36.261Z,120.10
2018-08-20T00:38:36.310Z,120.90
2018-08-20T00:39:36.534Z,110.60
2018-08-20T00:40:36.387Z,113.70
2018-08-20T00:41:36.440Z,125.90
2018-08-20T00:42:36.491Z,109.00
2018-08-20T00:43:36.530Z,96.70
2018-08-20T00:44:36.567Z,100.40
2018-08-20T00:45:36.603Z,100.40
2018-08-20T00:46:36.640Z,102.80
2018-08-20T00:47:36.703Z,108.10
2018-08-20T00:48:36.741Z,106.70
2018-08-20T00:49:36.771Z,104.80
2018-08-20T00:50:36.970Z,103.70
2018-08-20T00:51:36.867Z,90.60
2018-08-20T00:52:36.918Z,101.30
2018-08-20T00:53:36.987Z,94.90
2018-08-20T00:54:36.988Z,86.10
2018-08-20T00:55:37.042Z,89.50
2018-08-20T00:56:37.110Z,110.90
2018-08-20T00:57:37.124Z,93.30
2018-08-20T00:58:37.181Z,84.70
2018-08-20T00:59:37.242Z,84.10
2018-08-20T01:00:37.265Z,84.00
2018-08-20T01:01:37.506Z,86.50
2018-08-20T01:02:37.397Z,89.90
2018-08-20T01:03:37.421Z,88.70
2018-08-20T01:04:37.453Z,87.10
2018-08-20T01:05:37.487Z,82.20
2018-08-20T01:06:37.551Z,86.40
2018-08-20T01:07:37.564Z,89.70
2018-08-20T01:08:37.607Z,93.40
2018-08-20T01:09:37.659Z,92.90
2018-08-20T01:10:37.724Z,92.40
2018-08-20T01:11:37.765Z,95.30
2018-08-20T01:12:37.797Z,94.60
2018-08-20T01:13:37.894Z,93.80
2018-08-20T01:14:37.910Z,98.30
2018-08-20T01:15:37.944Z,97.60
2018-08-20T01:16:37.989Z,102.20
2018-08-20T01:17:38.036Z,108.90
2018-08-20T01:18:38.165Z,104.60
2018-08-20T01:19:38.125Z,88.90
2018-08-20T01:20:38.142Z,84.30
2018-08-20T01:21:38.211Z,84.80
2018-08-20T01:22:38.227Z,79.60
2018-08-20T01:23:38.293Z,80.80
2018-08-20T01:24:38.480Z,89.60
2018-08-20T01:25:38.358Z,78.30
2018-08-20T01:26:38.436Z,91.50
2018-08-20T01:27:38.472Z,83.60
2018-08-20T01:28:38.529Z,81.00
2018-08-20T01:29:38.548Z,84.30
2018-08-20T01:30:38.602Z,86.50
2018-08-20T01:31:38.655Z,85.50
2018-08-20T01:32:38.700Z,87.00
2018-08-20T01:33:38.774Z,95.60
2018-08-20T01:34:38.934Z,89.00
2018-08-20T01:35:38.818Z,87.40
2018-08-20T01:36:38.882Z,90.80
2018-08-20T01:37:38.919Z,93.00
2018-08-20T01:38:38.970Z,101.40
2018-08-20T01:39:39.025Z,107.40
2018-08-20T01:40:39.056Z,103.90
2018-08-20T01:41:39.249Z,104.50
2018-08-20T01:42:39.177Z,101.90
2018-08-20T01:43:39.181Z,110.30
2018-08-20T01:44:39.215Z,120.00
2018-08-20T01:45:39.276Z,108.20
2018-08-20T01:46:39.322Z,105.50
2018-08-20T01:47:39.386Z,105.80
2018-08-20T01:48:39.411Z,113.20
2018-08-20T01:49:39.443Z,112.50
2018-08-20T01:50:39.528Z,118.80
2018-08-20T01:51:39.537Z,127.40
2018-08-20T01:52:39.670Z,139.00
2018-08-20T01:53:39.604Z,143.00
2018-08-20T01:54:39.704Z,156.20
2018-08-20T01:55:39.710Z,137.00
2018-08-20T01:56:39.750Z,145.40
2018-08-20T01:57:39.784Z,151.40
2018-08-20T01:58:39.847Z,168.50
2018-08-20T01:59:40.023Z,148.40
2018-08-20T02:00:39.942Z,145.70
2018-08-20T02:01:40.009Z,158.90
2018-08-20T02:02:40.046Z,157.80
2018-08-20T02:03:40.045Z,162.90
2018-08-20T02:04:40.121Z,157.20
2018-08-20T02:05:40.191Z,165.00
2018-08-20T02:06:40.178Z,158.40
2018-08-20T02:07:40.307Z,165.70
2018-08-20T02:08:40.338Z,167.50
2018-08-20T02:09:40.528Z,163.90
2018-08-20T02:10:40.349Z,144.20
2018-08-20T02:11:40.468Z,146.90
2018-08-20T02:12:40.484Z,156.40
2018-08-20T02:13:40.482Z,175.00
2018-08-20T02:14:40.584Z,162.40
2018-08-20T02:15:40.708Z,159.10
2018-08-20T02:16:40.630Z,160.40
2018-08-20T02:17:40.705Z,165.40
2018-08-20T02:18:40.698Z,151.30
2018-08-20T02:19:40.803Z,164.80
2018-08-20T02:20:40.784Z,164.90
2018-08-20T02:21:40.997Z,174.70
2018-08-20T02:22:40.875Z,185.50
2018-08-20T02:23:40.961Z,182.00
2018-08-20T02:24:40.959Z,193.80
2018-08-20T02:25:41.008Z,189.60
2018-08-20T02:26:41.117Z,176.80
2018-08-20T02:27:41.342Z,173.80
2018-08-20T02:28:41.141Z,199.30
2018-08-20T02:29:41.230Z,204.50
2018-08-20T02:30:41.236Z,200.10
2018-08-20T02:31:41.282Z,201.90
2018-08-20T02:32:41.384Z,202.70
2018-08-20T02:33:41.632Z,215.30
2018-08-20T02:34:41.500Z,209.10
2018-08-20T02:35:41.447Z,209.40
2018-08-20T02:36:41.482Z,194.90
2018-08-20T02:37:41.602Z,202.70
2018-08-20T02:38:41.593Z,205.80
2018-08-20T02:39:41.767Z,249.60
2018-08-20T02:40:41.648Z,234.10
2018-08-20T02:41:41.722Z,204.50
2018-08-20T02:42:41.769Z,227.00
2018-08-20T02:43:41.771Z,217.40
2018-08-20T02:44:41.840Z,214.60
2018-08-20T02:45:41.889Z,188.20
2018-08-20T02:46:41.934Z,190.00
2018-08-20T02:47:41.981Z,204.50
2018-08-20T02:48:42.033Z,203.80
2018-08-20T02:49:42.051Z,191.90
2018-08-20T02:50:42.290Z,194.30
2018-08-20T02:51:42.143Z,183.70
2018-08-20T02:52:42.202Z,134.70
2018-08-20T02:53:42.228Z,172.90
2018-08-20T02:54:42.317Z,153.90
2018-08-20T02:55:42.330Z,148.40
2018-08-20T02:56:42.352Z,129.40
2018-08-20T02:57:42.557Z,152.00
2018-08-20T02:58:42.455Z,139.20
2018-08-20T02:59:42.499Z,146.10
2018-08-20T03:00:42.535Z,151.50
2018-08-20T03:02:42.620Z,154.90
2018-08-20T03:03:42.880Z,130.20
2018-08-20T03:04:42.707Z,131.50
2018-08-20T03:06:42.840Z,141.30
2018-08-20T03:07:42.837Z,136.20
2018-08-20T03:08:42.859Z,131.90
2018-08-20T03:10:42.946Z,130.60
2018-08-20T03:13:43.074Z,128.20
2018-08-20T03:14:43.134Z,120.70
2018-08-20T03:15:43.335Z,133.00
2018-08-20T03:16:43.207Z,140.00
2018-08-20T03:17:43.262Z,121.40
2018-08-20T03:18:43.328Z,133.50
2018-08-20T03:20:45.046Z,126.20
2018-08-20T03:21:43.430Z,114.70
2018-08-20T03:22:43.496Z,109.40
2018-08-20T03:23:43.549Z,100.30
2018-08-20T03:25:43.627Z,128.50
2018-08-20T03:26:43.655Z,109.30
2018-08-20T03:27:43.896Z,111.50
2018-08-20T03:28:43.736Z,105.60
2018-08-20T03:29:43.803Z,116.10
2018-08-20T03:30:43.831Z,115.50
2018-08-20T03:32:43.917Z,114.80
2018-08-20T03:33:44.122Z,135.10
2018-08-20T03:36:44.100Z,140.20
2018-08-20T03:37:44.139Z,199.20
2018-08-20T03:38:44.195Z,109.80
2018-08-20T03:39:44.222Z,117.00
2018-08-20T03:41:44.296Z,107.00
2018-08-20T03:42:44.387Z,110.20
2018-08-20T03:43:45.897Z,108.40
2018-08-20T03:45:44.464Z,114.70
2018-08-20T03:46:44.539Z,107.10
2018-08-20T03:48:44.621Z,111.00
2018-08-20T03:49:44.646Z,139.70
2018-08-20T03:50:44.846Z,97.00
2018-08-20T03:51:44.749Z,104.90
2018-08-20T03:52:44.779Z,99.70
2018-08-20T03:53:44.820Z,107.30
2018-08-20T03:54:44.887Z,100.50
2018-08-20T03:55:44.907Z,91.10
2018-08-20T03:56:45.108Z,91.00
2018-08-20T03:57:44.998Z,99.80
2018-08-20T03:58:45.087Z,98.80
2018-08-20T03:59:45.088Z,103.60
2018-08-20T04:00:45.148Z,89.80
2018-08-20T04:01:45.179Z,98.00
2018-08-20T04:02:45.360Z,112.10
2018-08-20T04:03:45.243Z,99.20
2018-08-20T04:05:45.334Z,91.30
2018-08-20T04:06:45.384Z,109.70
2018-08-20T04:07:45.500Z,101.40
2018-08-20T04:08:45.490Z,88.80
2018-08-20T04:09:45.503Z,98.10
2018-08-20T04:12:45.642Z,108.50
2018-08-20T04:14:46.185Z,96.60
2018-08-20T04:16:45.789Z,93.30
2018-08-20T04:17:45.855Z,122.10
2018-08-20T04:19:45.936Z,118.50
2018-08-20T04:20:45.975Z,171.50
2018-08-20T04:22:46.058Z,99.00
2018-08-20T04:23:46.820Z,107.80
2018-08-20T04:24:46.292Z,102.90
2018-08-20T04:25:46.222Z,108.40
2018-08-20T04:26:46.240Z,137.60
2018-08-20T04:27:46.329Z,111.30
2018-08-20T04:28:46.757Z,122.00
2018-08-20T04:29:46.367Z,109.50
2018-08-20T04:30:46.474Z,120.10
2018-08-20T04:32:46.502Z,111.10
2018-08-20T04:34:46.583Z,119.10
2018-08-20T04:35:46.668Z,110.50
2018-08-20T04:36:46.780Z,134.10
2018-08-20T04:38:46.746Z,131.50
2018-08-20T04:39:46.831Z,121.80
2018-08-20T04:40:46.853Z,114.40
2018-08-20T04:41:47.031Z,125.80
2018-08-20T04:42:46.917Z,112.30
2018-08-20T04:43:46.991Z,108.70
2018-08-20T04:44:47.031Z,116.60
2018-08-20T04:46:47.114Z,138.40
2018-08-20T04:47:47.159Z,116.30
2018-08-20T04:48:47.244Z,116.60
2018-08-20T04:49:47.273Z,118.70
2018-08-20T04:50:47.378Z,112.30
2018-08-20T04:51:47.323Z,104.30
2018-08-20T04:52:48.850Z,116.20
2018-08-20T04:53:47.403Z,149.30
2018-08-20T04:54:47.421Z,108.30
2018-08-20T04:56:47.526Z,121.50
2018-08-20T04:58:47.613Z,107.10
2018-08-20T05:00:47.737Z,140.00
2018-08-20T05:01:47.745Z,103.40
2018-08-20T05:02:47.782Z,105.60
2018-08-20T05:03:47.840Z,121.60
2018-08-20T05:05:47.929Z,220.00
2018-08-20T05:06:47.941Z,99.00
2018-08-20T05:07:47.997Z,126.70
2018-08-20T05:09:48.271Z,153.90
2018-08-20T05:10:48.131Z,112.10
2018-08-20T05:11:48.168Z,116.10
2018-08-20T05:13:48.274Z,129.10
2018-08-20T05:14:48.300Z,124.50
2018-08-20T05:15:48.343Z,286.00
2018-08-20T05:16:48.400Z,131.50
2018-08-20T05:17:48.435Z,133.40
2018-08-20T05:19:48.507Z,127.10
2018-08-20T05:21:50.250Z,134.40
2018-08-20T05:22:48.642Z,133.20
2018-08-20T05:23:48.687Z,120.90
2018-08-20T05:24:48.700Z,156.80
2018-08-20T05:25:48.872Z,132.20
2018-08-20T05:26:48.869Z,177.70
2018-08-20T05:27:48.838Z,129.50
2018-08-20T05:28:49.037Z,133.10
2018-08-20T05:30:48.976Z,242.50
2018-08-20T05:31:49.025Z,139.00
2018-08-20T05:32:49.138Z,141.80
2018-08-20T05:33:50.765Z,137.10
2018-08-20T05:34:50.708Z,145.00
2018-08-20T05:35:49.232Z,135.50
2018-08-20T05:36:49.246Z,169.20
2018-08-20T05:38:49.324Z,145.40
2018-08-20T05:39:49.410Z,145.60
2018-08-20T05:40:49.569Z,153.60
2018-08-20T05:42:49.476Z,147.20
2018-08-20T05:43:49.533Z,140.40
2018-08-20T05:44:49.629Z,154.30
2018-08-20T05:46:49.861Z,149.40
2018-08-20T05:47:49.693Z,153.60
2018-08-20T05:48:50.406Z,151.50
2018-08-20T05:49:49.808Z,169.30
2018-08-20T05:50:49.841Z,184.20
2018-08-20T05:51:49.853Z,162.60
2018-08-20T05:52:49.903Z,155.10
2018-08-20T05:53:49.982Z,173.00
2018-08-20T05:54:49.988Z,164.70
2018-08-20T05:55:50.077Z,171.80
2018-08-20T05:56:50.130Z,179.10
2018-08-20T05:57:50.271Z,207.60
2018-08-20T05:58:50.157Z,156.40
2018-08-20T06:00:50.263Z,187.20
2018-08-20T06:02:50.319Z,199.10
2018-08-20T06:04:50.657Z,197.60
2018-08-20T06:05:50.495Z,180.50
2018-08-20T06:06:50.507Z,195.00
2018-08-20T06:07:50.594Z,219.80
2018-08-20T06:08:50.592Z,191.90
2018-08-20T06:09:52.205Z,205.10
2018-08-20T06:11:50.763Z,217.40
2018-08-20T06:12:50.759Z,221.10
2018-08-20T06:13:50.806Z,239.70
2018-08-20T06:14:50.859Z,230.90
2018-08-20T06:15:50.900Z,251.40
2018-08-20T06:16:50.932Z,244.40
2018-08-20T06:17:50.984Z,240.20
2018-08-20T06:18:51.025Z,237.00
2018-08-20T06:20:51.102Z,236.30
2018-08-20T06:23:51.273Z,232.00
2018-08-20T06:24:51.326Z,217.20
2018-08-20T06:25:51.302Z,228.80
2018-08-20T06:27:51.398Z,236.10
2018-08-20T06:28:51.464Z,248.50
2018-08-20T06:29:51.471Z,269.40
2018-08-20T06:30:51.533Z,254.00
2018-08-20T06:31:51.575Z,243.90
2018-08-20T06:32:51.667Z,343.30
2018-08-20T06:36:51.835Z,246.70
2018-08-20T06:37:51.824Z,256.20
2018-08-20T06:39:51.914Z,285.10
2018-08-20T06:40:51.949Z,275.00
2018-08-20T06:41:51.986Z,268.80
2018-08-20T06:42:52.043Z,294.60
2018-08-20T06:43:52.091Z,289.30
2018-08-20T06:44:52.131Z,294.90
2018-08-20T06:45:52.202Z,285.60
2018-08-20T06:46:52.194Z,267.60
2018-08-20T06:47:52.283Z,285.10
2018-08-20T06:48:52.433Z,448.60
2018-08-20T06:50:52.357Z,282.10
2018-08-20T06:52:52.483Z,291.70
2018-08-20T06:53:52.489Z,279.70
2018-08-20T06:55:52.591Z,295.10
2018-08-20T06:56:52.631Z,277.40
2018-08-20T06:58:52.690Z,296.10
2018-08-20T07:01:52.847Z,406.70
2018-08-20T07:02:52.872Z,297.20
2018-08-20T07:03:52.921Z,297.20
2018-08-20T07:04:52.973Z,276.70
2018-08-20T07:05:53.193Z,301.80
2018-08-20T07:06:53.053Z,326.70
2018-08-20T07:07:53.091Z,345.10
2018-08-20T07:09:53.235Z,285.30
2018-08-20T07:10:53.211Z,251.50
2018-08-20T07:11:53.322Z,259.90
2018-08-20T07:13:53.340Z,281.10
2018-08-20T07:15:55.132Z,289.70
2018-08-20T07:16:53.621Z,294.60
2018-08-20T07:17:53.508Z,278.80
2018-08-20T07:19:53.646Z,279.60
2018-08-20T07:20:53.677Z,256.20
2018-08-20T07:21:55.541Z,289.80
2018-08-20T07:22:53.865Z,328.00
2018-08-20T07:23:53.861Z,284.90
2018-08-20T07:24:53.851Z,328.10
2018-08-20T07:25:53.891Z,335.40
2018-08-20T07:26:53.971Z,304.50
2018-08-20T07:27:54.038Z,349.60
2018-08-20T07:28:54.087Z,281.80
2018-08-20T07:29:54.044Z,277.50
2018-08-20T07:30:54.209Z,278.20
2018-08-20T07:32:54.216Z,277.30
2018-08-20T07:33:54.433Z,285.90
2018-08-20T07:34:54.360Z,289.00
2018-08-20T07:35:54.271Z,275.10
2018-08-20T07:36:54.308Z,312.30
2018-08-20T07:37:54.368Z,288.60
2018-08-20T07:38:54.396Z,263.30
2018-08-20T07:39:54.541Z,274.80
2018-08-20T07:40:54.478Z,335.90
2018-08-20T07:42:54.540Z,322.00
2018-08-20T07:43:54.597Z,291.90
2018-08-20T07:44:54.688Z,301.30
2018-08-20T07:45:54.841Z,304.60
2018-08-20T07:47:54.769Z,283.90
2018-08-20T07:48:54.806Z,295.00
2018-08-20T07:49:54.847Z,325.20
2018-08-20T07:50:55.114Z,260.80
2018-08-20T07:51:54.968Z,277.20
2018-08-20T07:52:54.994Z,448.70
2018-08-20T07:53:55.028Z,265.60
2018-08-20T07:54:55.101Z,278.80
2018-08-20T07:56:55.309Z,583.40
2018-08-20T07:57:55.245Z,276.30
2018-08-20T07:58:55.236Z,304.80
2018-08-20T07:59:55.279Z,250.40
2018-08-20T08:00:55.365Z,271.20
2018-08-20T08:01:55.458Z,283.80
2018-08-20T08:02:57.058Z,257.60
2018-08-20T08:03:55.494Z,260.40
2018-08-20T08:04:55.528Z,239.90
2018-08-20T08:05:55.581Z,255.70
2018-08-20T08:06:55.621Z,245.10
2018-08-20T08:07:55.686Z,234.10
2018-08-20T08:08:55.961Z,282.10
2018-08-20T08:09:55.808Z,238.20
2018-08-20T08:10:55.837Z,274.80
2018-08-20T08:11:55.843Z,273.30
2018-08-20T08:13:56.022Z,318.00
2018-08-20T08:14:55.955Z,288.00
2018-08-20T08:15:55.979Z,240.60
2018-08-20T08:16:56.035Z,264.10
2018-08-20T08:17:56.084Z,281.30
2018-08-20T08:18:56.380Z,275.00
2018-08-20T08:19:56.183Z,281.40
2018-08-20T08:21:56.265Z,272.50
2018-08-20T08:22:56.307Z,274.50
2018-08-20T08:23:56.480Z,289.90
2018-08-20T08:24:56.553Z,282.40
2018-08-20T08:25:56.414Z,251.40
2018-08-20T08:26:56.420Z,305.30
2018-08-20T08:29:58.073Z,312.60
2018-08-20T08:30:56.726Z,310.10
2018-08-20T08:32:56.672Z,317.30
2018-08-20T08:33:56.692Z,321.20
2018-08-20T08:36:56.972Z,348.10
2018-08-20T08:37:56.883Z,354.20
2018-08-20T08:38:56.912Z,295.40
2018-08-20T08:39:56.934Z,366.10
2018-08-20T08:40:56.995Z,286.00
2018-08-20T08:41:57.021Z,357.20
2018-08-20T08:43:57.134Z,392.30
2018-08-20T08:44:57.182Z,387.00
2018-08-20T08:47:57.437Z,334.40
2018-08-20T08:48:57.336Z,348.40
2018-08-20T08:49:57.376Z,310.60
2018-08-20T08:50:57.403Z,368.70
2018-08-20T08:51:57.497Z,433.20
2018-08-20T08:52:58.994Z,366.50
2018-08-20T08:53:57.553Z,339.00
2018-08-20T08:54:57.575Z,332.20
2018-08-20T08:56:57.716Z,334.30
2018-08-20T08:57:57.712Z,319.10
2018-08-20T08:58:57.968Z,362.60
2018-08-20T08:59:59.303Z,355.70
2018-08-20T09:00:57.838Z,380.80
2018-08-20T09:01:57.857Z,341.80
2018-08-20T09:02:57.927Z,367.70
2018-08-20T09:03:57.966Z,376.20
2018-08-20T09:04:57.985Z,359.50
2018-08-20T09:05:58.184Z,306.10
2018-08-20T09:06:58.075Z,316.60
2018-08-20T09:07:58.123Z,362.80
2018-08-20T09:08:58.186Z,328.20
2018-08-20T09:09:58.218Z,358.80
2018-08-20T09:10:59.758Z,333.40
2018-08-20T09:12:58.353Z,296.70
2018-08-20T09:13:58.369Z,330.10
2018-08-20T09:14:58.418Z,322.40
2018-08-20T09:15:58.459Z,302.10
2018-08-20T09:16:58.644Z,283.50
2018-08-20T09:17:58.546Z,292.70
2018-08-20T09:19:58.634Z,301.70
2018-08-20T09:20:58.662Z,282.80
2018-08-20T09:21:58.723Z,294.40
2018-08-20T09:23:58.834Z,286.10
2018-08-20T09:25:58.877Z,269.60
2018-08-20T09:26:58.930Z,279.10
2018-08-20T09:27:59.123Z,275.80
2018-08-20T09:28:59.014Z,293.00
2018-08-20T09:29:59.032Z,277.80
2018-08-20T09:30:59.090Z,267.40
2018-08-20T09:31:59.140Z,259.80
2018-08-20T09:32:59.190Z,254.10
2018-08-20T09:33:59.231Z,237.90
2018-08-20T09:34:59.236Z,237.60
2018-08-20T09:35:59.306Z,241.40
2018-08-20T09:36:59.386Z,221.00
2018-08-20T09:38:00.883Z,223.90
2018-08-20T09:39:59.469Z,216.30
2018-08-20T09:40:59.507Z,207.30
2018-08-20T09:43:59.650Z,208.40
2018-08-20T09:44:59.693Z,208.40
2018-08-20T09:45:59.704Z,208.80
2018-08-20T09:46:59.812Z,204.70
2018-08-20T09:47:59.808Z,196.00
2018-08-20T09:48:59.986Z,204.70
2018-08-20T09:49:59.871Z,197.60
2018-08-20T09:50:59.939Z,199.20
2018-08-20T09:51:59.982Z,190.60
2018-08-20T09:53:00.057Z,196.40
2018-08-20T09:54:00.070Z,203.20
2018-08-20T09:55:00.088Z,199.20
2018-08-20T09:56:00.142Z,194.40
2018-08-20T09:58:00.211Z,198.10
2018-08-20T09:59:00.298Z,203.30
2018-08-20T10:01:00.360Z,311.30
2018-08-20T10:02:00.414Z,185.30
2018-08-20T10:03:00.442Z,194.60
2018-08-20T10:04:00.482Z,201.70
2018-08-20T10:05:00.500Z,194.90
2018-08-20T10:06:00.722Z,334.50
2018-08-20T10:07:00.600Z,359.00
2018-08-20T10:08:00.643Z,369.20
2018-08-20T10:09:00.679Z,209.20
2018-08-20T10:10:00.764Z,229.80
2018-08-20T10:11:00.792Z,245.00
2018-08-20T10:12:00.807Z,225.90
2018-08-20T10:13:00.863Z,221.60
2018-08-20T10:14:00.910Z,195.20
2018-08-20T10:15:00.924Z,218.40
2018-08-20T10:16:01.131Z,215.30
2018-08-20T10:17:01.020Z,242.20
2018-08-20T10:18:01.055Z,222.30
2018-08-20T10:20:01.140Z,237.90
2018-08-20T10:21:01.236Z,223.10
2018-08-20T10:22:01.253Z,253.70
2018-08-20T10:24:01.319Z,221.10
2018-08-20T10:25:01.369Z,249.20
2018-08-20T10:26:01.545Z,266.80
2018-08-20T10:28:01.497Z,183.10
2018-08-20T10:30:01.626Z,175.40
2018-08-20T10:31:01.642Z,131.70
2018-08-20T10:32:01.786Z,125.80
2018-08-20T10:33:01.721Z,124.60
2018-08-20T10:34:01.756Z,100.40
2018-08-20T10:35:01.794Z,122.10
2018-08-20T10:37:02.082Z,110.80
2018-08-20T10:38:02.055Z,77.00
2018-08-20T10:39:01.981Z,51.70
2018-08-20T10:40:02.038Z,44.40
2018-08-20T10:41:02.078Z,37.80
2018-08-20T10:42:03.865Z,31.60
2018-08-20T10:43:02.191Z,29.60
2018-08-20T10:44:02.203Z,26.80
2018-08-20T10:45:02.265Z,31.20
2018-08-20T10:46:02.349Z,45.60
2018-08-20T10:47:02.336Z,51.70
2018-08-20T10:48:02.594Z,51.20
2018-08-20T10:49:03.949Z,59.10
2018-08-20T10:50:02.571Z,57.40
2018-08-20T10:51:02.560Z,62.10
2018-08-20T10:52:02.582Z,56.30
2018-08-20T10:53:02.646Z,65.30
2018-08-20T10:54:02.691Z,59.90
2018-08-20T10:55:04.387Z,63.10
2018-08-20T10:56:02.805Z,61.60
2018-08-20T10:57:02.848Z,65.70
2018-08-20T10:58:02.923Z,57.20
2018-08-20T10:59:02.942Z,58.30
2018-08-20T11:00:02.991Z,59.10
2018-08-20T11:01:03.177Z,49.80
2018-08-20T11:03:03.151Z,46.80
2018-08-20T11:04:03.161Z,46.10
2018-08-20T11:05:03.231Z,38.50
2018-08-20T11:06:03.269Z,35.80
2018-08-20T11:07:03.391Z,49.00
2018-08-20T11:09:03.429Z,47.10
2018-08-20T11:10:03.547Z,37.90
2018-08-20T11:11:03.587Z,37.40
2018-08-20T11:12:05.126Z,39.50
2018-08-20T11:14:36.893Z,39.90
2018-08-20T11:15:03.735Z,37.40
2018-08-20T11:17:03.846Z,34.40
2018-08-20T11:18:03.878Z,36.00
2018-08-20T11:19:03.913Z,37.70
2018-08-20T11:20:03.992Z,36.70
2018-08-20T11:21:04.091Z,35.20
2018-08-20T11:22:04.101Z,48.80
2018-08-20T11:23:04.144Z,30.90
2018-08-20T11:24:05.680Z,30.80
2018-08-20T11:25:04.384Z,37.50
2018-08-20T11:26:04.290Z,31.20
2018-08-20T11:27:04.406Z,28.50
2018-08-20T11:28:04.420Z,32.40
2018-08-20T11:29:04.466Z,26.80
2018-08-20T11:30:06.047Z,25.70
2018-08-20T11:31:04.550Z,25.80
2018-08-20T11:32:04.625Z,23.60
2018-08-20T11:33:04.652Z,24.10
2018-08-20T11:35:04.797Z,24.00
2018-08-20T11:36:04.814Z,25.50
2018-08-20T11:37:04.869Z,30.60
2018-08-20T11:39:04.980Z,26.90
2018-08-20T11:41:05.053Z,27.10
2018-08-20T11:43:05.190Z,27.90
2018-08-20T11:44:05.238Z,28.50
2018-08-20T11:45:05.299Z,26.80
2018-08-20T11:46:05.347Z,27.10
2018-08-20T11:50:05.559Z,26.90
2018-08-20T11:51:05.635Z,28.20
2018-08-20T11:52:05.646Z,28.50
2018-08-20T11:53:05.695Z,27.10
2018-08-20T11:55:05.835Z,31.80
2018-08-20T11:56:05.867Z,32.90
2018-08-20T11:57:05.914Z,34.30
2018-08-20T11:58:05.950Z,30.40
2018-08-20T12:01:06.276Z,30.70
2018-08-20T12:02:06.183Z,28.70
2018-08-20T12:03:06.233Z,27.50
2018-08-20T12:04:06.301Z,27.00
2018-08-20T12:05:06.369Z,27.80
2018-08-20T12:07:06.728Z,29.00
2018-08-20T12:08:06.496Z,28.60
2018-08-20T12:10:06.628Z,25.50
2018-08-20T12:11:06.690Z,26.60
2018-08-20T12:12:06.739Z,26.30
2018-08-20T12:13:08.284Z,26.90
2018-08-20T12:14:06.845Z,27.70
2018-08-20T12:15:06.884Z,26.30
2018-08-20T12:16:06.966Z,25.70
2018-08-20T12:20:07.153Z,26.00
2018-08-20T12:21:07.215Z,26.70
2018-08-20T12:22:07.256Z,26.60
2018-08-20T12:23:07.319Z,27.60
2018-08-20T12:24:07.399Z,28.90
2018-08-20T12:25:08.932Z,28.90
2018-08-20T12:26:07.626Z,30.50
2018-08-20T12:27:07.559Z,28.10
2018-08-20T12:28:07.675Z,29.40
2018-08-20T12:29:07.643Z,29.80
2018-08-20T12:30:07.711Z,27.40
2018-08-20T12:32:09.379Z,30.40
2018-08-20T12:33:07.884Z,31.90
2018-08-20T12:34:07.937Z,41.40
2018-08-20T12:35:07.993Z,32.70
2018-08-20T12:36:08.052Z,27.50
2018-08-20T12:37:08.088Z,28.20
2018-08-20T12:38:08.241Z,28.50
2018-08-20T12:39:08.257Z,27.40
2018-08-20T12:40:08.289Z,25.50
2018-08-20T12:43:08.442Z,29.40
2018-08-20T12:44:08.476Z,30.40
2018-08-20T12:45:08.532Z,32.60
2018-08-20T12:46:08.618Z,34.70
2018-08-20T12:48:08.691Z,31.40
2018-08-20T12:49:08.734Z,32.10
2018-08-20T12:50:08.968Z,29.30
2018-08-20T12:52:08.903Z,36.10
2018-08-20T12:53:08.980Z,35.10
2018-08-20T12:54:09.005Z,29.30
2018-08-20T12:55:09.067Z,33.00
2018-08-20T12:57:09.199Z,35.70
2018-08-20T12:58:09.246Z,42.40
2018-08-20T12:59:09.317Z,51.30
2018-08-20T13:01:09.419Z,87.60
2018-08-20T13:02:10.960Z,83.40
2018-08-20T13:03:09.507Z,47.60
2018-08-20T13:05:09.631Z,42.20
2018-08-20T13:07:09.737Z,67.90
2018-08-20T13:08:09.807Z,50.10
2018-08-20T13:09:09.998Z,44.60
2018-08-20T13:10:09.952Z,52.90
2018-08-20T13:11:10.007Z,49.10
2018-08-20T13:12:10.019Z,39.40
2018-08-20T13:13:10.072Z,39.60
2018-08-20T13:15:10.438Z,47.00
2018-08-20T13:16:10.430Z,54.60
2018-08-20T13:17:10.315Z,46.70
2018-08-20T13:18:10.373Z,41.80
2018-08-20T13:19:10.476Z,40.10
2018-08-20T13:20:10.581Z,39.10
2018-08-20T13:21:10.522Z,35.00
2018-08-20T13:22:10.593Z,34.90
2018-08-20T13:23:10.629Z,33.90
2018-08-20T13:24:10.709Z,31.30
2018-08-20T13:25:10.742Z,27.80
2018-08-20T13:26:12.362Z,30.30
2018-08-20T13:27:11.016Z,34.60
2018-08-20T13:29:10.982Z,26.50
2018-08-20T13:31:11.109Z,34.70
2018-08-20T13:33:11.231Z,31.80
2018-08-20T13:34:11.271Z,27.50
2018-08-20T13:35:11.312Z,25.00
2018-08-20T13:36:11.391Z,24.20
2018-08-20T13:37:11.490Z,24.30
2018-08-20T13:38:11.490Z,24.50
2018-08-20T13:39:11.630Z,24.40
2018-08-20T13:42:11.740Z,24.10
2018-08-20T13:43:11.793Z,24.60
2018-08-20T13:44:11.885Z,25.30
2018-08-20T13:45:11.921Z,25.40
2018-08-20T13:46:11.965Z,24.50
2018-08-20T13:47:12.018Z,24.60
2018-08-20T13:48:12.125Z,24.90
2018-08-20T13:49:12.136Z,25.30
2018-08-20T13:50:12.209Z,24.70
2018-08-20T13:51:12.383Z,24.90
2018-08-20T13:52:12.327Z,24.60
2018-08-20T13:53:12.372Z,25.30
2018-08-20T13:54:12.435Z,28.20
2018-08-20T13:55:12.534Z,29.70
2018-08-20T13:56:12.584Z,30.40
2018-08-20T13:58:12.655Z,28.80
2018-08-20T13:59:12.713Z,27.50
2018-08-20T14:00:12.778Z,30.80
2018-08-20T14:01:12.887Z,32.40
2018-08-20T14:02:12.870Z,33.10
2018-08-20T14:03:13.011Z,32.40
2018-08-20T14:05:13.082Z,30.20
2018-08-20T14:09:13.464Z,29.70
2018-08-20T14:10:15.045Z,30.20
2018-08-20T14:11:13.411Z,30.40
2018-08-20T14:12:13.479Z,25.90
2018-08-20T14:13:13.579Z,25.60
2018-08-20T14:15:13.653Z,24.90
2018-08-20T14:16:13.722Z,25.60
2018-08-20T14:17:13.773Z,26.00
2018-08-20T14:19:13.896Z,23.10
2018-08-20T14:20:13.944Z,23.20
2018-08-20T14:21:14.040Z,23.50
2018-08-20T14:23:14.128Z,23.90
2018-08-20T14:24:14.172Z,24.20
2018-08-20T14:26:14.269Z,25.40
2018-08-20T14:27:14.359Z,24.20
2018-08-20T14:28:14.434Z,23.60
2018-08-20T14:29:14.485Z,24.80
2018-08-20T14:30:14.528Z,23.50
2018-08-20T14:31:14.585Z,22.20
2018-08-20T14:33:16.211Z,23.10
2018-08-20T14:34:14.762Z,22.10
2018-08-20T14:35:14.813Z,21.20
2018-08-20T14:36:14.870Z,22.00
2018-08-20T14:37:14.924Z,22.40
2018-08-20T14:38:14.991Z,20.00
2018-08-20T14:39:15.029Z,22.70
2018-08-20T14:40:15.105Z,21.90
2018-08-20T14:41:15.165Z,22.50
2018-08-20T14:42:15.307Z,19.40
2018-08-20T14:43:15.292Z,20.20
2018-08-20T14:44:15.356Z,20.10
2018-08-20T14:45:15.386Z,18.70
2018-08-20T14:47:15.530Z,22.90
2018-08-20T14:48:15.568Z,25.10
2018-08-20T14:49:15.634Z,20.00